Time;durP1;ratioP1;P1;durP2;ratioP2;P2;SDS_P1;SDS_P2;PMS_P1;PMS_P2;Temp;Humidity;BMP_temperature;BMP_pressure;BME280_temperature;BME280_humidity;BME280_pressure;Samples;Min_cycle;Max_cycle;Signal;HPM_P1;HPM_P2
2022/11/14 00:00:10;;;;;;;1999.90;999.90;;;;;;;9.15;100.00;98792.78;5090596;28;20067;-74
2022/11/14 00:02:36;;;;;;;1999.90;999.90;;;;;;;9.21;100.00;98792.84;5090867;28;20116;-74
2022/11/14 00:05:02;;;;;;;1999.90;999.90;;;;;;;9.32;100.00;98795.34;5090464;28;20119;-74
2022/11/14 00:07:31;;;;;;;1999.90;999.90;;;;;;;9.30;100.00;98797.53;5102787;28;20040;-74
2022/11/14 00:09:56;;;;;;;1999.90;999.90;;;;;;;9.23;100.00;98802.41;5098240;28;20036;-74
2022/11/14 00:12:22;;;;;;;1999.90;999.90;;;;;;;9.17;100.00;98792.53;5081201;28;20100;-74
2022/11/14 00:14:47;;;;;;;1999.90;999.90;;;;;;;9.12;100.00;98801.50;5093416;28;20024;-74
2022/11/14 00:17:13;;;;;;;1999.90;999.90;;;;;;;9.08;100.00;98802.31;5111201;28;20063;-75
2022/11/14 00:19:38;;;;;;;1999.90;999.90;;;;;;;9.02;100.00;98806.91;5113081;28;20476;-74
2022/11/14 00:22:04;;;;;;;1999.90;999.90;;;;;;;9.03;100.00;98788.63;5104217;28;20077;-75
2022/11/14 00:24:29;;;;;;;1999.90;999.90;;;;;;;9.19;100.00;98801.28;5101822;28;20024;-74
2022/11/14 00:26:54;;;;;;;1999.90;999.90;;;;;;;9.15;100.00;98802.88;5113201;28;20092;-75
2022/11/14 00:29:20;;;;;;;1999.90;999.90;;;;;;;9.11;100.00;98804.53;5114372;28;20468;-75
2022/11/14 00:31:45;;;;;;;1999.90;999.90;;;;;;;9.12;100.00;98800.69;5110075;28;20019;-73
2022/11/14 00:34:10;;;;;;;1999.90;999.90;;;;;;;9.21;100.00;98799.09;5106912;28;20533;-73
2022/11/14 00:36:36;;;;;;;1999.90;999.90;;;;;;;9.16;100.00;98807.25;5104327;28;20111;-75
2022/11/14 00:39:02;;;;;;;1999.90;999.90;;;;;;;9.12;100.00;98809.69;5084578;28;20038;-74
2022/11/14 00:41:28;;;;;;;1999.90;999.90;;;;;;;9.06;100.00;98807.19;5105725;28;20073;-74
2022/11/14 00:43:53;;;;;;;1999.90;999.90;;;;;;;9.04;100.00;98788.38;5103264;28;20027;-73
2022/11/14 00:46:18;;;;;;;1999.90;999.90;;;;;;;9.18;100.00;98787.91;5096814;28;20039;-74
2022/11/14 00:48:44;;;;;;;1999.90;999.90;;;;;;;9.10;100.00;98784.59;5101366;28;20031;-74
2022/11/14 00:51:09;;;;;;;1999.90;999.90;;;;;;;9.11;100.00;98796.34;5110187;28;20505;-74
2022/11/14 00:53:35;;;;;;;1999.90;999.90;;;;;;;9.02;100.00;98781.56;5102620;28;20035;-77
2022/11/14 00:56:00;;;;;;;1999.90;999.90;;;;;;;9.17;100.00;98775.34;5102714;28;20051;-75
2022/11/14 00:58:25;;;;;;;1999.90;999.90;;;;;;;9.05;100.00;98772.84;5093823;28;20028;-76
2022/11/14 01:00:51;;;;;;;1999.90;999.90;;;;;;;9.02;100.00;98787.00;5106340;28;20027;-75
2022/11/14 01:03:17;;;;;;;1999.90;999.90;;;;;;;9.01;100.00;98788.09;5110105;28;20062;-78
2022/11/14 01:05:45;;;;;;;1999.90;999.90;;;;;;;9.07;100.00;98765.19;5107333;28;20024;-75
2022/11/14 01:08:10;;;;;;;1999.90;999.90;;;;;;;9.15;100.00;98772.84;5103333;28;20051;-75
2022/11/14 01:10:44;;;;;;;1999.90;999.90;;;;;;;9.14;100.00;98761.16;5083679;28;20369;-76
2022/11/14 01:13:10;;;;;;;1999.90;999.90;;;;;;;9.11;100.00;98769.03;5083880;28;20056;-75
2022/11/14 01:15:45;;;;;;;1999.90;999.90;;;;;;;9.14;100.00;98777.53;5110431;28;20050;-80
2022/11/14 01:18:14;;;;;;;1999.90;999.90;;;;;;;9.21;100.00;98782.72;5109178;28;20035;-74
2022/11/14 01:20:41;;;;;;;1999.90;999.90;;;;;;;9.26;100.00;98768.28;5107944;28;20036;-75
2022/11/14 01:23:07;;;;;;;1999.90;999.90;;;;;;;9.23;100.00;98775.09;5103767;28;20016;-75
2022/11/14 01:25:37;;;;;;;1999.90;999.90;;;;;;;9.18;100.00;98772.31;5104388;28;20036;-74
2022/11/14 01:28:10;;;;;;;1999.90;999.90;;;;;;;9.12;100.00;98770.66;5082480;28;20046;-74
2022/11/14 01:30:36;;;;;;;1999.90;999.90;;;;;;;9.11;100.00;98772.56;5107405;28;20023;-75
2022/11/14 01:33:03;;;;;;;1999.90;999.90;;;;;;;9.07;100.00;98776.09;5105091;28;20472;-75
2022/11/14 01:35:29;;;;;;;1999.90;999.90;;;;;;;9.09;100.00;98773.91;5103307;28;20073;-75
2022/11/14 01:37:55;;;;;;;1999.90;999.90;;;;;;;9.10;100.00;98762.75;5103345;28;20027;-74
2022/11/14 01:40:20;;;;;;;1999.90;999.90;;;;;;;9.04;100.00;98763.00;5100711;28;20059;-75
2022/11/14 01:43:10;;;;;;;1999.90;999.90;;;;;;;9.12;100.00;98765.22;5104107;28;20016;-74
2022/11/14 01:45:58;;;;;;;1999.90;999.90;;;;;;;9.17;100.00;98761.69;5103078;28;20095;-75
2022/11/14 01:48:33;;;;;;;1999.90;999.90;;;;;;;9.08;100.00;98758.66;5100483;28;20216;-74
2022/11/14 01:51:04;;;;;;;1999.90;999.90;;;;;;;9.10;100.00;98749.09;5088420;28;20421;-75
2022/11/14 01:53:30;;;;;;;1999.90;999.90;;;;;;;9.06;100.00;98749.91;5113525;28;20032;-74
2022/11/14 01:56:00;;;;;;;1999.90;999.90;;;;;;;9.07;100.00;98746.91;5097048;28;20032;-74
2022/11/14 01:58:27;;;;;;;1999.90;999.90;;;;;;;9.10;100.00;98748.28;5111056;28;20065;-74
2022/11/14 02:00:53;;;;;;;1999.90;999.90;;;;;;;9.07;100.00;98738.72;5092810;28;20024;-75
2022/11/14 02:03:19;;;;;;;1999.90;999.90;;;;;;;9.09;100.00;98735.72;5092568;28;20036;-74
2022/11/14 02:05:47;;;;;;;1999.90;999.90;;;;;;;9.10;100.00;98735.47;5092680;28;20024;-75
2022/11/14 02:08:14;;;;;;;1999.90;999.90;;;;;;;9.01;100.00;98728.06;5092249;28;20059;-75
2022/11/14 02:10:39;;;;;;;1999.90;999.90;;;;;;;8.96;100.00;98726.09;5092526;28;20024;-74
2022/11/14 02:13:05;;;;;;;1999.90;999.90;;;;;;;8.93;100.00;98721.19;5092564;28;20526;-75
2022/11/14 02:15:32;;;;;;;1999.90;999.90;;;;;;;8.97;100.00;98726.94;5092527;28;20031;-75
2022/11/14 02:17:57;;;;;;;1999.90;999.90;;;;;;;9.03;100.00;98728.59;5092491;28;20111;-75
2022/11/14 02:20:27;;;;;;;1999.90;999.90;;;;;;;9.05;100.00;98729.97;5092365;28;20111;-74
2022/11/14 02:22:53;;;;;;;1999.90;999.90;;;;;;;9.05;100.00;98721.00;5092243;28;20481;-75
2022/11/14 02:25:19;;;;;;;1999.90;999.90;;;;;;;9.06;100.00;98709.78;5092698;28;20044;-74
2022/11/14 02:27:44;;;;;;;1999.90;999.90;;;;;;;9.06;100.00;98714.41;5092129;28;20035;-74
2022/11/14 02:30:16;;;;;;;1999.90;999.90;;;;;;;9.06;100.00;98703.50;5092180;28;20061;-75
2022/11/14 02:32:42;;;;;;;1999.90;999.90;;;;;;;9.03;100.00;98706.75;5092146;28;20433;-75
2022/11/14 02:35:07;;;;;;;1999.90;999.90;;;;;;;9.02;100.00;98703.22;5091688;28;20107;-75
2022/11/14 02:37:33;;;;;;;1999.90;999.90;;;;;;;9.04;100.00;98711.16;5092016;28;20315;-74
2022/11/14 02:39:58;;;;;;;1999.90;999.90;;;;;;;8.97;100.00;98710.56;5091494;28;20028;-74
2022/11/14 02:42:23;;;;;;;1999.90;999.90;;;;;;;8.93;100.00;98704.00;5091037;28;20123;-75
2022/11/14 02:44:49;;;;;;;1999.90;999.90;;;;;;;8.88;100.00;98713.00;5092168;28;20027;-75
2022/11/14 02:47:14;;;;;;;1999.90;999.90;;;;;;;8.86;100.00;98703.44;5092282;28;20020;-75
2022/11/14 02:49:39;;;;;;;1999.90;999.90;;;;;;;8.83;100.00;98707.53;5091578;28;20077;-75
2022/11/14 02:52:05;;;;;;;1999.90;999.90;;;;;;;8.84;100.00;98709.13;5091157;28;20020;-75
2022/11/14 02:54:30;;;;;;;1999.90;999.90;;;;;;;8.87;100.00;98707.78;5091219;28;20074;-75
2022/11/14 02:56:55;;;;;;;1999.90;999.90;;;;;;;8.85;100.00;98709.97;5091165;28;20024;-75
2022/11/14 02:59:21;;;;;;;1999.90;999.90;;;;;;;8.90;100.00;98729.06;5091209;28;20071;-75
2022/11/14 03:01:46;;;;;;;1999.90;999.90;;;;;;;8.89;100.00;98705.63;5091289;28;20073;-74
2022/11/14 03:04:11;;;;;;;1999.90;999.90;;;;;;;8.96;100.00;98708.91;5072891;28;20032;-74
2022/11/14 03:06:37;;;;;;;1999.90;999.90;;;;;;;8.86;100.00;98719.81;5091068;28;20029;-75
2022/11/14 03:09:02;;;;;;;1999.90;999.90;;;;;;;8.84;100.00;98713.78;5091569;28;20554;-74
2022/11/14 03:11:27;;;;;;;1999.90;999.90;;;;;;;8.84;100.00;98728.22;5091492;28;20358;-75
2022/11/14 03:13:53;;;;;;;1999.90;999.90;;;;;;;8.81;100.00;98722.50;5091384;28;20481;-74
2022/11/14 03:16:18;;;;;;;1999.90;999.90;;;;;;;8.89;100.00;98714.63;5091330;28;20557;-74
2022/11/14 03:18:43;;;;;;;1999.90;999.90;;;;;;;8.87;100.00;98718.69;5091329;28;20031;-75
2022/11/14 03:21:12;;;;;;;1999.90;999.90;;;;;;;8.90;100.00;98721.72;5091236;28;20055;-75
2022/11/14 03:23:37;;;;;;;1999.90;999.90;;;;;;;8.86;100.00;98726.09;5094564;28;20388;-75
2022/11/14 03:26:05;;;;;;;1999.90;999.90;;;;;;;8.82;100.00;98724.13;5113187;28;20032;-75
2022/11/14 03:28:30;;;;;;;1999.90;999.90;;;;;;;8.74;100.00;98725.44;5117126;28;20023;-79
2022/11/14 03:30:56;;;;;;;1999.90;999.90;;;;;;;8.75;100.00;98734.47;5112917;28;20114;-76
2022/11/14 03:33:21;;;;;;;1999.90;999.90;;;;;;;8.72;100.00;98733.09;5111132;28;20042;-75
2022/11/14 03:35:49;;;;;;;1999.90;999.90;;;;;;;8.72;100.00;98734.97;5111268;28;20024;-74
2022/11/14 03:38:16;;;;;;;1999.90;999.90;;;;;;;8.78;100.00;98740.22;5098993;28;20028;-74
2022/11/14 03:40:41;;;;;;;1999.90;999.90;;;;;;;8.73;100.00;98725.72;5091107;28;20034;-75
2022/11/14 03:43:07;;;;;;;1999.90;999.90;;;;;;;8.75;100.00;98735.28;5091061;28;20035;-75
2022/11/14 03:45:32;;;;;;;1999.90;999.90;;;;;;;8.70;100.00;98728.97;5090891;28;20468;-74
2022/11/14 03:47:57;;;;;;;1999.90;999.90;;;;;;;8.68;100.00;98722.97;5090884;28;20043;-74
2022/11/14 03:50:23;;;;;;;1999.90;999.90;;;;;;;8.68;100.00;98729.22;5090704;28;20032;-75
2022/11/14 03:52:48;;;;;;;1999.90;999.90;;;;;;;8.50;100.00;98722.31;5090593;28;20032;-75
2022/11/14 03:55:14;;;;;;;1999.90;999.90;;;;;;;8.47;100.00;98732.94;5091068;28;20030;-74
2022/11/14 03:57:39;;;;;;;1999.90;999.90;;;;;;;8.49;100.00;98731.56;5091057;28;20027;-75
2022/11/14 04:00:05;;;;;;;1999.90;999.90;;;;;;;8.54;100.00;98725.34;5090642;28;20476;-75
2022/11/14 04:02:31;;;;;;;1999.90;999.90;;;;;;;8.61;100.00;98729.47;5090707;28;20127;-75
2022/11/14 04:04:56;;;;;;;1999.90;999.90;;;;;;;8.58;100.00;98721.81;5090374;28;20618;-74
2022/11/14 04:07:21;;;;;;;1999.90;999.90;;;;;;;8.58;100.00;98721.00;5090248;28;20377;-74
2022/11/14 04:09:47;;;;;;;1999.90;999.90;;;;;;;8.38;100.00;98718.97;5090520;28;20050;-75
2022/11/14 04:12:12;;;;;;;1999.90;999.90;;;;;;;8.34;100.00;98723.28;5090589;28;20118;-75
2022/11/14 04:14:37;;;;;;;1999.90;999.90;;;;;;;8.38;100.00;98721.69;5090638;28;20024;-74
2022/11/14 04:17:03;;;;;;;1999.90;999.90;;;;;;;8.41;100.00;98713.00;5090205;28;20020;-74
2022/11/14 04:19:28;;;;;;;1999.90;999.90;;;;;;;8.58;100.00;98707.38;5092964;28;20126;-74
2022/11/14 04:21:54;;;;;;;1999.90;999.90;;;;;;;8.52;100.00;98703.78;5110285;28;20035;-75
2022/11/14 04:24:19;;;;;;;1999.90;999.90;;;;;;;8.32;100.00;98692.75;5100745;28;20036;-74
2022/11/14 04:26:44;;;;;;;1999.90;999.90;;;;;;;8.38;100.00;98705.34;5071890;28;20032;-74
2022/11/14 04:29:10;;;;;;;1999.90;999.90;;;;;;;8.43;100.00;98704.53;5090274;28;20032;-74
2022/11/14 04:31:35;;;;;;;1999.90;999.90;;;;;;;8.39;100.00;98698.81;5090091;28;20024;-74
2022/11/14 04:34:00;;;;;;;1999.90;999.90;;;;;;;8.31;100.00;98688.38;5090131;28;20024;-75
2022/11/14 04:36:26;;;;;;;1999.90;999.90;;;;;;;8.36;100.00;98696.63;5099303;28;20431;-75
2022/11/14 04:38:51;;;;;;;1999.90;999.90;;;;;;;8.28;100.00;98697.09;5110292;28;20045;-74
2022/11/14 04:41:16;;;;;;;1999.90;999.90;;;;;;;8.31;100.00;98702.00;5110092;28;20035;-75
2022/11/14 04:43:42;;;;;;;1999.90;999.90;;;;;;;8.36;100.00;98704.78;5109984;28;20032;-75
2022/11/14 04:46:07;;;;;;;1999.90;999.90;;;;;;;8.33;100.00;98694.38;5110488;28;20034;-74
2022/11/14 04:48:32;;;;;;;1999.90;999.90;;;;;;;8.36;100.00;98699.34;5109763;28;20028;-75
2022/11/14 04:50:58;;;;;;;1999.90;999.90;;;;;;;8.36;100.00;98703.97;5109882;28;20068;-74
2022/11/14 04:53:23;;;;;;;1999.90;999.90;;;;;;;8.42;100.00;98697.47;5109657;28;20055;-75
2022/11/14 04:55:49;;;;;;;1999.90;999.90;;;;;;;8.53;100.00;98705.44;5110172;28;20102;-74
2022/11/14 04:58:14;;;;;;;1999.90;999.90;;;;;;;8.61;100.00;98690.50;5110566;28;20105;-74
2022/11/14 05:00:39;;;;;;;1999.90;999.90;;;;;;;8.63;100.00;98690.22;5111193;28;20055;-75
2022/11/14 05:03:05;;;;;;;1999.90;999.90;;;;;;;8.53;100.00;98683.63;5111408;28;20530;-76
2022/11/14 05:05:31;;;;;;;1999.90;999.90;;;;;;;8.53;100.00;98691.78;5114310;28;20050;-75
2022/11/14 05:07:56;;;;;;;1999.90;999.90;;;;;;;8.50;100.00;98692.31;5114507;28;20120;-74
2022/11/14 05:10:22;;;;;;;1999.90;999.90;;;;;;;8.62;100.00;98692.13;5113718;28;20027;-75
2022/11/14 05:12:47;;;;;;;1999.90;999.90;;;;;;;8.59;100.00;98693.47;5113892;28;20035;-75
2022/11/14 05:15:12;;;;;;;1999.90;999.90;;;;;;;8.64;100.00;98697.31;5113785;28;20031;-74
2022/11/14 05:17:38;;;;;;;1999.90;999.90;;;;;;;8.62;100.00;98697.56;5113682;28;20089;-75
2022/11/14 05:20:03;;;;;;;1999.90;999.90;;;;;;;8.63;100.00;98704.66;5095133;28;20039;-74
2022/11/14 05:22:29;;;;;;;1999.90;999.90;;;;;;;8.64;100.00;98700.88;5113202;28;20088;-74
2022/11/14 05:24:54;;;;;;;1999.90;999.90;;;;;;;8.65;100.00;98693.47;5114151;28;20022;-74
2022/11/14 05:27:19;;;;;;;1999.90;999.90;;;;;;;8.70;100.00;98693.53;5095392;28;20038;-76
2022/11/14 05:29:45;;;;;;;1999.90;999.90;;;;;;;8.75;100.00;98699.81;5114170;28;20032;-75
2022/11/14 05:32:10;;;;;;;1999.90;999.90;;;;;;;8.70;100.00;98710.72;5110643;28;20114;-75
2022/11/14 05:34:37;;;;;;;1999.90;999.90;;;;;;;8.67;100.00;98713.97;5113484;28;20088;-75
2022/11/14 05:37:02;;;;;;;1999.90;999.90;;;;;;;8.73;100.00;98723.00;5119041;28;20031;-78
2022/11/14 05:39:28;;;;;;;1999.90;999.90;;;;;;;8.68;100.00;98722.97;5112843;28;20032;-75
2022/11/14 05:41:53;;;;;;;1999.90;999.90;;;;;;;8.69;100.00;98724.59;5085546;28;20039;-75
2022/11/14 05:44:18;;;;;;;1999.90;999.90;;;;;;;8.66;100.00;98709.59;5092477;28;20115;-75
2022/11/14 05:46:44;;;;;;;1999.90;999.90;;;;;;;8.79;100.00;98719.22;5108649;28;20031;-75
2022/11/14 05:49:09;;;;;;;1999.90;999.90;;;;;;;8.74;100.00;98721.94;5117109;28;20023;-84
2022/11/14 05:51:34;;;;;;;1999.90;999.90;;;;;;;8.77;100.00;98718.66;5111056;28;20024;-84
2022/11/14 05:54:00;;;;;;;1999.90;999.90;;;;;;;8.72;100.00;98718.63;5100549;28;20370;-87
2022/11/14 05:56:26;;;;;;;1999.90;999.90;;;;;;;8.61;100.00;98721.28;5101613;28;20400;-88
2022/11/14 05:58:51;;;;;;;1999.90;999.90;;;;;;;8.76;100.00;98715.13;5101401;28;20157;-83
2022/11/14 06:01:18;;;;;;;1999.90;999.90;;;;;;;8.80;100.00;98718.13;5106444;28;20020;-86
2022/11/14 06:03:47;;;;;;;1999.90;999.90;;;;;;;8.77;100.00;98727.66;5105064;28;20074;-80
2022/11/14 06:06:17;;;;;;;1999.90;999.90;;;;;;;8.81;100.00;98717.84;5106077;28;20047;-87
2022/11/14 06:08:43;;;;;;;1999.90;999.90;;;;;;;8.75;100.00;98729.00;5098049;28;20048;-78
2022/11/14 06:11:12;;;;;;;1999.90;999.90;;;;;;;8.72;100.00;98734.97;5092447;28;20024;-75
2022/11/14 06:13:37;;;;;;;1999.90;999.90;;;;;;;8.72;100.00;98729.53;5092200;28;20104;-76
2022/11/14 06:16:06;;;;;;;1999.90;999.90;;;;;;;8.72;100.00;98718.63;5092135;28;20032;-74
2022/11/14 06:18:33;;;;;;;1999.90;999.90;;;;;;;8.85;100.00;98726.34;5093487;28;20032;-75
2022/11/14 06:21:05;;;;;;;1999.90;999.90;;;;;;;8.87;100.00;98727.69;5093123;28;20032;-75
2022/11/14 06:23:30;;;;;;;1999.90;999.90;;;;;;;8.81;100.00;98734.22;5091014;28;20198;-75
2022/11/14 06:26:00;;;;;;;1999.90;999.90;;;;;;;8.82;100.00;98729.59;5091207;28;20532;-75
2022/11/14 06:28:26;;;;;;;1999.90;999.90;;;;;;;8.91;100.00;98722.53;5091651;28;20024;-75
2022/11/14 06:30:56;;;;;;;1999.90;999.90;;;;;;;8.91;100.00;98720.63;5098136;28;20019;-75
2022/11/14 06:33:22;;;;;;;1999.90;999.90;;;;;;;8.88;100.00;98728.53;5111789;28;20066;-75
2022/11/14 06:35:47;;;;;;;1999.90;999.90;;;;;;;8.83;100.00;98734.81;5112173;28;20351;-76
2022/11/14 06:38:12;;;;;;;1999.90;999.90;;;;;;;8.85;100.00;98729.06;5088976;28;20031;-75
2022/11/14 06:40:38;;;;;;;1999.90;999.90;;;;;;;8.87;100.00;98735.06;5091018;28;20055;-76
2022/11/14 06:43:03;;;;;;;1999.90;999.90;;;;;;;8.83;100.00;98739.44;5091320;28;20027;-75
2022/11/14 06:45:28;;;;;;;1999.90;999.90;;;;;;;8.90;100.00;98746.28;5091372;28;20114;-75
2022/11/14 06:47:57;;;;;;;1999.90;999.90;;;;;;;8.93;100.00;98740.28;5091792;28;20062;-76
2022/11/14 06:50:23;;;;;;;1999.90;999.90;;;;;;;8.95;100.00;98750.94;5091601;28;20054;-75
2022/11/14 06:52:48;;;;;;;1999.90;999.90;;;;;;;8.98;100.00;98750.41;5091395;28;20040;-76
2022/11/14 06:55:13;;;;;;;1999.90;999.90;;;;;;;9.02;100.00;98735.97;5091886;28;20020;-76
2022/11/14 06:57:39;;;;;;;1999.90;999.90;;;;;;;9.08;100.00;98739.56;5091297;28;20031;-74
2022/11/14 07:00:05;;;;;;;1999.90;999.90;;;;;;;9.03;100.00;98736.78;5089873;28;20024;-75
2022/11/14 07:02:30;;;;;;;1999.90;999.90;;;;;;;8.99;100.00;98730.25;5091387;28;20039;-75
2022/11/14 07:04:55;;;;;;;1999.90;999.90;;;;;;;8.99;100.00;98736.50;5097133;28;20031;-75
2022/11/14 07:07:21;;;;;;;1999.90;999.90;;;;;;;8.99;100.00;98722.06;5099664;28;20059;-76
2022/11/14 07:09:46;;;;;;;1999.90;999.90;;;;;;;9.11;100.00;98730.84;5099938;28;20016;-75
2022/11/14 07:12:11;;;;;;;1999.90;999.90;;;;;;;9.19;100.00;98724.84;5085454;28;20028;-74
2022/11/14 07:14:37;;;;;;;1999.90;999.90;;;;;;;9.34;100.00;98721.34;5100739;28;20476;-75
2022/11/14 07:17:02;;;;;;;1999.90;999.90;;;;;;;9.40;100.00;98718.34;5099924;28;20019;-74
2022/11/14 07:19:27;;;;;;;1999.90;999.90;;;;;;;9.54;100.00;98733.16;5099225;28;20059;-75
2022/11/14 07:21:53;;;;;;;1999.90;999.90;;;;;;;9.54;100.00;98733.16;5099035;28;20024;-75
2022/11/14 07:24:18;;;;;;;1999.90;999.90;;;;;;;9.69;100.00;98740.56;5100013;28;20027;-75
2022/11/14 07:26:44;;;;;;;1999.90;999.90;;;;;;;9.72;100.00;98744.66;5081977;28;20069;-74
2022/11/14 07:29:10;;;;;;;1999.90;999.90;;;;;;;9.73;100.00;98757.22;5098307;28;20096;-76
2022/11/14 07:31:35;;;;;;;1999.90;999.90;;;;;;;9.83;100.00;98749.06;5100743;28;20032;-74
2022/11/14 07:34:01;;;;;;;1999.90;999.90;;;;;;;9.74;100.00;98735.13;5090944;28;20047;-75
2022/11/14 07:36:26;;;;;;;1999.90;999.90;;;;;;;9.66;100.00;98757.50;5090664;28;20066;-75
2022/11/14 07:38:51;;;;;;;1999.90;999.90;;;;;;;9.60;100.00;98750.38;5100041;28;20034;-75
2022/11/14 07:41:17;;;;;;;1999.90;999.90;;;;;;;9.67;100.00;98743.56;5111208;28;20023;-75
2022/11/14 07:43:43;;;;;;;1999.90;999.90;;;;;;;9.66;100.00;98741.91;5112026;28;20426;-75
2022/11/14 07:46:16;;;;;;;1999.90;999.90;;;;;;;9.75;100.00;98741.38;5117395;28;20028;-77
2022/11/14 07:48:42;;;;;;;1999.90;999.90;;;;;;;9.75;100.00;98733.19;5112746;28;20096;-75
2022/11/14 07:51:17;;;;;;;1999.90;999.90;;;;;;;9.70;100.00;98720.34;5111130;28;20103;-74
2022/11/14 07:53:42;;;;;;;1999.90;999.90;;;;;;;9.72;100.00;98717.34;5110873;28;20077;-75
2022/11/14 07:56:09;;;;;;;1999.90;999.90;;;;;;;9.78;100.00;98722.53;5111245;28;20548;-75
2022/11/14 07:58:36;;;;;;;1999.90;999.90;;;;;;;9.85;100.00;98727.75;5110851;28;20024;-76
2022/11/14 08:01:02;;;;;;;1999.90;999.90;;;;;;;10.00;100.00;98714.91;5109551;28;20023;-75
2022/11/14 08:03:28;;;;;;;1999.90;999.90;;;;;;;10.07;100.00;98725.56;5110176;28;20045;-75
2022/11/14 08:06:05;;;;;;;1999.90;999.90;;;;;;;10.00;100.00;98719.56;5110582;28;20365;-74
2022/11/14 08:08:30;;;;;;;1999.90;999.90;;;;;;;9.91;100.00;98721.19;5110370;28;20054;-75
2022/11/14 08:10:57;;;;;;;1999.90;999.90;;;;;;;9.84;100.00;98716.00;5109129;28;20031;-75
2022/11/14 08:13:23;;;;;;;1999.90;999.90;;;;;;;9.80;100.00;98708.63;5111089;28;20384;-75
2022/11/14 08:15:48;;;;;;;1999.90;999.90;;;;;;;9.88;100.00;98722.56;5110796;28;20026;-75
2022/11/14 08:18:13;;;;;;;1999.90;999.90;;;;;;;9.75;100.00;98723.09;5110600;28;20388;-75
2022/11/14 08:20:39;;;;;;;1999.90;999.90;;;;;;;9.80;100.00;98717.66;5110466;28;20128;-75
2022/11/14 08:23:05;;;;;;;1999.90;999.90;;;;;;;9.81;100.00;98726.63;5110720;28;20140;-75
2022/11/14 08:25:31;;;;;;;1999.90;999.90;;;;;;;9.72;100.00;98722.81;5111815;28;20083;-78
2022/11/14 08:27:56;;;;;;;1999.90;999.90;;;;;;;9.74;100.00;98715.16;5110595;28;20173;-74
2022/11/14 08:30:22;;;;;;;1999.90;999.90;;;;;;;9.79;100.00;98712.44;5086662;28;20769;-75
2022/11/14 08:32:47;;;;;;;1999.90;999.90;;;;;;;9.76;100.00;98718.44;5081642;28;20020;-75
2022/11/14 08:35:13;;;;;;;1999.90;999.90;;;;;;;9.76;100.00;98710.25;5099830;28;20107;-75
2022/11/14 08:37:38;;;;;;;1999.90;999.90;;;;;;;9.73;100.00;98713.53;5100546;28;20027;-74
2022/11/14 08:40:05;;;;;;;1999.90;999.90;;;;;;;9.68;100.00;98706.94;5100772;28;20083;-74
2022/11/14 08:42:30;;;;;;;1999.90;999.90;;;;;;;9.75;100.00;98705.88;5104453;28;20476;-75
2022/11/14 08:44:56;;;;;;;1999.90;999.90;;;;;;;9.84;100.00;98698.78;5103585;28;20084;-74
2022/11/14 08:47:21;;;;;;;1999.90;999.90;;;;;;;9.91;100.00;98693.88;5103369;28;20028;-74
2022/11/14 08:49:46;;;;;;;1999.90;999.90;;;;;;;9.91;100.00;98685.66;5101854;28;20032;-76
2022/11/14 08:52:12;;;;;;;1999.90;999.90;;;;;;;10.04;100.00;98671.47;5105302;28;20023;-74
2022/11/14 08:54:37;;;;;;;1999.90;999.90;;;;;;;10.22;100.00;98681.84;5102595;28;20030;-76
2022/11/14 08:57:03;;;;;;;1999.90;999.90;;;;;;;10.31;100.00;98677.47;5109669;28;20019;-74
2022/11/14 08:59:30;;;;;;;1999.90;999.90;;;;;;;10.53;100.00;98686.19;5103920;28;20016;-75
2022/11/14 09:01:55;;;;;;;1999.90;999.90;;;;;;;10.64;100.00;98682.34;5109400;28;20016;-74
2022/11/14 09:04:20;;;;;;;1999.90;999.90;;;;;;;10.81;100.00;98686.69;5101880;28;20077;-75
2022/11/14 09:06:48;;;;;;;1999.90;999.90;;;;;;;10.98;100.00;98692.63;5103015;28;20040;-74
2022/11/14 09:09:14;;;;;;;1999.90;999.90;;;;;;;11.06;100.00;98683.81;5101591;28;20066;-76
2022/11/14 09:11:39;;;;;;;1999.90;999.90;;;;;;;10.90;100.00;98690.47;5082208;28;20027;-75
2022/11/14 09:14:05;;;;;;;1999.90;999.90;;;;;;;10.83;100.00;98679.81;5101529;28;20041;-75
2022/11/14 09:16:30;;;;;;;1999.90;999.90;;;;;;;10.80;100.00;98680.38;5108085;28;20551;-75
2022/11/14 09:18:56;;;;;;;1999.90;999.90;;;;;;;10.75;100.00;98683.13;5111163;28;20455;-75
2022/11/14 09:21:21;;;;;;;1999.90;999.90;;;;;;;11.04;100.00;98686.84;5110464;28;20099;-76
2022/11/14 09:23:49;;;;;;;1999.90;999.90;;;;;;;11.36;100.00;98675.47;5104534;28;20015;-74
2022/11/14 09:26:14;;;;;;;1999.90;999.90;;;;;;;11.69;100.00;98671.13;5085505;28;20020;-75
2022/11/14 09:28:40;;;;;;;1999.90;999.90;;;;;;;11.93;100.00;98672.09;5101543;28;20024;-75
2022/11/14 09:31:08;;;;;;;1999.90;999.90;;;;;;;12.58;100.00;98680.81;5101439;28;20488;-75
2022/11/14 09:33:34;;;;;;;1999.90;999.90;;;;;;;12.85;100.00;98672.81;5095898;28;20548;-76
2022/11/14 09:36:03;;;;;;;1999.90;999.90;;;;;;;13.26;100.00;98670.44;5092454;28;20024;-75
2022/11/14 09:38:28;;;;;;;1999.90;999.90;;;;;;;13.22;100.00;98672.94;5092700;28;20019;-76
2022/11/14 09:41:07;;;;;;;1999.90;999.90;;;;;;;12.96;100.00;98673.53;5092685;28;20024;-76
2022/11/14 09:43:46;;;;;;;1999.90;999.90;;;;;;;12.52;100.00;98668.28;5093119;28;20032;-75
2022/11/14 09:46:30;;;;;;;1999.90;999.90;;;;;;;12.21;100.00;98654.03;5093195;28;20035;-76
2022/11/14 09:48:55;;;;;;;1999.90;999.90;;;;;;;12.00;100.00;98650.63;5094653;28;20054;-76
2022/11/14 09:51:50;;;;;;;1999.90;999.90;;;;;;;12.03;100.00;98633.63;5093676;28;20028;-78
2022/11/14 09:54:22;;;;;;;1999.90;999.90;;;;;;;12.19;100.00;98626.06;5097596;28;20066;-75
2022/11/14 09:56:47;;;;;;;1999.90;999.90;;;;;;;12.99;100.00;98607.88;5097734;28;20028;-75
2022/11/14 09:59:13;;;;;;;1999.90;999.90;;;;;;;13.91;100.00;98614.47;5092673;28;20042;-76
2022/11/14 10:02:04;;;;;;;1999.90;999.90;;;;;;;14.63;100.00;98612.06;5093022;28;20091;-77
2022/11/14 10:04:49;;;;;;;1999.90;999.90;;;;;;;14.35;100.00;98614.00;5093574;28;20043;-75
2022/11/14 10:07:44;;;;;;;1999.90;999.90;;;;;;;14.59;100.00;98621.25;5092750;28;20120;-76
2022/11/14 10:10:34;;;;;;;1999.90;999.90;;;;;;;14.47;100.00;98632.78;5092651;28;20141;-77
2022/11/14 10:13:13;;;;;;;1999.90;999.90;;;;;;;13.46;100.00;98631.69;5092583;28;20040;-76
2022/11/14 10:15:50;;;;;;;1999.90;999.90;;;;;;;12.39;100.00;98628.63;5092725;28;20039;-74
2022/11/14 10:18:43;;;;;;;1999.90;999.90;;;;;;;12.32;100.00;98630.88;5092440;28;20044;-74
2022/11/14 10:21:37;;;;;;;1999.90;999.90;;;;;;;12.05;100.00;98625.13;5092507;28;20088;-76
2022/11/14 10:24:08;;;;;;;1999.90;999.90;;;;;;;11.57;100.00;98624.91;5092383;28;20067;-75
2022/11/14 10:26:40;;;;;;;1999.90;999.90;;;;;;;11.29;100.00;98629.22;5094187;28;20115;-76
2022/11/14 10:29:26;;;;;;;1999.90;999.90;;;;;;;11.29;100.00;98617.44;5097419;28;20028;-77
2022/11/14 10:32:31;;;;;;;1999.90;999.90;;;;;;;10.81;100.00;98607.31;5097649;28;20561;-75
2022/11/14 10:35:15;;;;;;;1999.90;999.90;;;;;;;11.06;100.00;98607.16;5092931;28;20027;-76
2022/11/14 10:38:00;;;;;;;1999.90;999.90;;;;;;;10.90;100.00;98624.78;5074203;28;20391;-75
2022/11/14 10:40:46;;;;;;;1999.90;999.90;;;;;;;10.72;100.00;98613.34;5074418;28;20039;-75
2022/11/14 10:43:46;;;;;;;1999.90;999.90;;;;;;;10.93;100.00;98602.31;5092418;28;20032;-75
2022/11/14 10:46:27;;;;;;;1999.90;999.90;;;;;;;11.08;100.00;98600.31;5037441;28;20385;-75
2022/11/14 10:48:53;;;;;;;1999.90;999.90;;;;;;;11.24;100.00;98601.06;5092004;28;20032;-75
2022/11/14 10:51:26;;;;;;;1999.90;999.90;;;;;;;11.41;100.00;98608.88;5092052;28;20043;-76
2022/11/14 10:54:03;;;;;;;1999.90;999.90;;;;;;;11.64;100.00;98603.50;5093341;28;20030;-75